createdAt,value
2022-09-06T07:29:26.762Z,100976.19
2022-09-06T07:33:55.645Z,100984.72
2022-09-06T07:36:03.245Z,100989.53
2022-09-06T07:38:05.791Z,100974.69
2022-09-06T07:40:08.936Z,100974.34
2022-09-06T07:42:11.332Z,100981.12
2022-09-06T07:44:13.927Z,100975.41
2022-09-06T07:46:17.657Z,100967.91
2022-09-06T07:48:19.988Z,100969.06
2022-09-06T07:55:07.742Z,100973.53
2022-09-06T07:57:12.171Z,100975.97
2022-09-06T07:59:14.891Z,100977.50
2022-09-06T08:01:17.255Z,100972.06
2022-09-06T08:03:20.186Z,100975.16
2022-09-06T08:07:44.853Z,100970.97
2022-09-06T08:09:47.365Z,100981.63
2022-09-06T08:11:51.181Z,100978.19
2022-09-06T08:13:55.683Z,100980.53
2022-09-06T08:16:06.843Z,100977.72
2022-09-06T08:18:09.239Z,100977.56
2022-09-06T08:20:12.814Z,100974.66
2022-09-06T08:22:15.607Z,100969.97
2022-09-06T08:24:18.027Z,100963.47
2022-09-06T08:26:22.495Z,100963.81
2022-09-06T08:28:28.547Z,100962.00
2022-09-06T08:30:31.289Z,100962.28
2022-09-06T08:32:36.500Z,100964.12
2022-09-06T08:34:39.035Z,100955.78
2022-09-06T08:36:42.569Z,100958.53
2022-09-06T08:38:45.875Z,100960.03
2022-09-06T08:40:48.584Z,100958.72
2022-09-06T08:42:51.641Z,100954.69
2022-09-06T08:44:58.553Z,100950.28
2022-09-06T08:47:07.727Z,100951.13
2022-09-06T08:49:10.513Z,100948.75
2022-09-06T08:51:21.535Z,100945.97
2022-09-06T08:53:24.575Z,100942.91
2022-09-06T08:55:52.911Z,100948.34
2022-09-06T08:58:29.329Z,100938.25
2022-09-06T09:00:34.440Z,100943.72
2022-09-06T09:02:47.450Z,100938.47
2022-09-06T09:04:56.179Z,100933.91
2022-09-06T09:07:06.964Z,100931.66
2022-09-06T09:09:13.444Z,100936.34
2022-09-06T09:11:20.246Z,100930.03
2022-09-06T09:13:53.820Z,100929.03
2022-09-06T09:15:57.803Z,100931.31
2022-09-06T09:18:00.182Z,100929.38
2022-09-06T09:20:03.555Z,100923.03
2022-09-06T09:22:06.075Z,100924.69
2022-09-06T09:24:11.330Z,100925.19
2022-09-06T09:26:15.499Z,100920.06
2022-09-06T09:28:20.231Z,100917.84
2022-09-06T09:32:47.603Z,100911.59
2022-09-06T09:34:50.687Z,100913.81
2022-09-06T09:39:43.320Z,100899.09
2022-09-06T09:41:50.609Z,100902.72
2022-09-06T09:44:03.655Z,100891.88
2022-09-06T09:46:15.984Z,100899.09
2022-09-06T09:48:27.286Z,100891.47
2022-09-06T09:50:34.863Z,100887.47
2022-09-06T09:52:44.453Z,100884.69
2022-09-06T09:54:47.717Z,100880.34
2022-09-06T09:56:52.929Z,100881.91
2022-09-06T09:58:58.162Z,100882.72
2022-09-06T10:01:26.579Z,100877.06
2022-09-06T10:03:31.226Z,100872.19
2022-09-06T10:05:33.709Z,100866.69
2022-09-06T10:07:51.219Z,100865.00
2022-09-06T10:09:56.532Z,100859.81
2022-09-06T10:11:59.649Z,100864.34
2022-09-06T10:14:23.316Z,100858.50
2022-09-06T10:16:43.708Z,100855.94
2022-09-06T10:18:46.112Z,100848.28
2022-09-06T10:20:54.920Z,100845.38
2022-09-06T10:26:16.430Z,100843.81
2022-09-06T10:28:41.963Z,100839.63
2022-09-06T10:31:28.459Z,100831.88
2022-09-06T10:34:02.041Z,100835.03
2022-09-06T10:36:04.723Z,100830.47
2022-09-06T10:38:32.468Z,100826.09
2022-09-06T10:41:03.247Z,100827.44
2022-09-06T10:43:10.263Z,100826.09
2022-09-06T10:45:36.241Z,100822.78
2022-09-06T10:47:49.536Z,100816.37
2022-09-06T10:49:57.905Z,100820.22
2022-09-06T10:52:04.485Z,100814.88
2022-09-06T10:54:10.651Z,100812.69
2022-09-06T10:56:57.732Z,100819.38
2022-09-06T11:02:08.744Z,100808.31
2022-09-06T11:04:23.277Z,100812.31
2022-09-06T11:06:32.768Z,100813.75
2022-09-06T11:08:48.003Z,100811.72
2022-09-06T11:10:52.625Z,100811.09
2022-09-06T11:13:04.198Z,100806.31
2022-09-06T11:15:10.450Z,100796.66
2022-09-06T11:17:27.792Z,100801.62
2022-09-06T11:19:39.766Z,100796.66
2022-09-06T11:22:13.477Z,100796.03
2022-09-06T11:24:37.607Z,100785.81
2022-09-06T11:26:44.631Z,100782.47
2022-09-06T11:28:55.951Z,100776.69
2022-09-06T11:30:59.135Z,100774.47
2022-09-06T11:33:21.577Z,100767.38
2022-09-06T11:35:28.678Z,100758.13
2022-09-06T11:37:34.957Z,100767.91
2022-09-06T11:42:42.239Z,100751.69
2022-09-06T11:44:51.964Z,100752.56
2022-09-06T11:46:58.916Z,100761.19
2022-09-06T11:49:09.208Z,100753.13
2022-09-06T11:51:12.413Z,100744.75
2022-09-06T11:53:17.644Z,100744.16
2022-09-06T11:58:54.578Z,100745.63
2022-09-06T12:01:12.451Z,100739.03
2022-09-06T12:06:17.764Z,100733.66
2022-09-06T12:08:33.501Z,100723.19
2022-09-06T12:10:49.855Z,100717.59
2022-09-06T12:12:52.691Z,100726.81
2022-09-06T12:14:55.648Z,100708.84
2022-09-06T12:16:58.013Z,100711.94
2022-09-06T12:19:01.937Z,100703.97
2022-09-06T12:21:04.817Z,100705.25
2022-09-06T12:23:07.137Z,100710.03
2022-09-06T12:25:29.626Z,100704.66
2022-09-06T12:27:35.144Z,100705.59
2022-09-06T12:29:37.580Z,100700.44
2022-09-06T12:31:44.211Z,100696.72
2022-09-06T12:33:48.110Z,100686.47
2022-09-06T12:35:59.306Z,100690.28
2022-09-06T12:38:06.530Z,100675.72
2022-09-06T12:40:15.477Z,100680.13
2022-09-06T12:42:19.462Z,100677.22
2022-09-06T12:44:29.190Z,100668.78
2022-09-06T12:46:33.040Z,100668.41
2022-09-06T12:48:41.253Z,100656.19
2022-09-06T12:50:44.411Z,100663.81
2022-09-06T12:52:55.068Z,100653.38
2022-09-06T12:54:57.399Z,100658.41
2022-09-06T12:57:14.657Z,100660.84
2022-09-06T12:59:25.173Z,100650.59
2022-09-06T13:01:33.805Z,100649.88
2022-09-06T13:03:56.238Z,100637.06
2022-09-06T13:06:02.323Z,100645.94
2022-09-06T13:08:05.115Z,100650.19
2022-09-06T13:10:08.676Z,100641.28
2022-09-06T13:12:50.432Z,100634.72
2022-09-06T13:14:58.187Z,100636.00
2022-09-06T13:17:01.211Z,100636.34
2022-09-06T13:19:37.556Z,100632.34
2022-09-06T13:21:42.087Z,100632.03
2022-09-06T13:23:50.441Z,100633.16
2022-09-06T13:25:54.968Z,100632.00
2022-09-06T13:28:01.732Z,100627.50
2022-09-06T13:30:09.244Z,100627.88
2022-09-06T13:32:14.689Z,100626.94
2022-09-06T13:34:24.872Z,100623.34
2022-09-06T13:36:28.667Z,100625.03
2022-09-06T13:38:38.975Z,100626.03
2022-09-06T13:41:06.726Z,100621.41
2022-09-06T13:43:11.465Z,100618.91
2022-09-06T13:45:31.762Z,100619.69
2022-09-06T13:47:34.050Z,100617.22
2022-09-06T13:49:36.492Z,100619.56
2022-09-06T13:51:40.680Z,100610.25
2022-09-06T13:53:43.008Z,100610.31
2022-09-06T13:55:45.269Z,100609.59
2022-09-06T13:57:48.228Z,100607.81
2022-09-06T13:59:50.484Z,100609.84
2022-09-06T14:02:12.092Z,100606.47
2022-09-06T14:04:19.709Z,100600.16
2022-09-06T14:06:22.537Z,100603.47
2022-09-06T14:08:24.980Z,100603.63
2022-09-06T14:10:27.661Z,100596.22
2022-09-06T14:12:30.067Z,100591.28
2022-09-06T14:14:33.078Z,100595.69
2022-09-06T14:16:38.623Z,100593.88
2022-09-06T14:18:41.486Z,100582.47
2022-09-06T14:20:54.297Z,100585.97
2022-09-06T14:22:56.894Z,100586.75
2022-09-06T14:24:59.181Z,100583.78
2022-09-06T14:27:01.991Z,100580.91
2022-09-06T14:29:04.939Z,100584.00
2022-09-06T14:31:12.200Z,100584.91
2022-09-06T14:33:14.579Z,100584.69
2022-09-06T14:35:17.291Z,100584.38
2022-09-06T14:37:21.708Z,100578.59
2022-09-06T14:39:24.113Z,100574.16
2022-09-06T14:41:27.588Z,100573.28
2022-09-06T14:43:29.899Z,100579.91
2022-09-06T14:45:35.396Z,100580.38
2022-09-06T14:47:39.371Z,100574.72
2022-09-06T14:49:41.734Z,100581.75
2022-09-06T14:51:44.263Z,100582.87
2022-09-06T14:53:46.886Z,100580.13
2022-09-06T14:55:49.149Z,100577.84
2022-09-06T14:57:51.462Z,100576.78
2022-09-06T14:59:54.099Z,100570.03
2022-09-06T15:01:57.445Z,100575.97
2022-09-06T15:04:03.145Z,100578.12
2022-09-06T15:06:06.093Z,100578.38
2022-09-06T15:08:08.547Z,100583.28
2022-09-06T15:10:10.944Z,100583.63
2022-09-06T15:12:13.583Z,100577.59
2022-09-06T15:14:20.152Z,100578.25
2022-09-06T15:16:23.485Z,100581.28
2022-09-06T15:18:26.058Z,100580.59
2022-09-06T15:20:28.359Z,100584.66
2022-09-06T15:22:31.194Z,100592.25
2022-09-06T15:24:34.554Z,100598.09
2022-09-06T15:26:36.853Z,100602.25
2022-09-06T15:28:40.956Z,100605.34
2022-09-06T15:30:44.492Z,100609.50
2022-09-06T15:32:47.168Z,100609.19
2022-09-06T15:34:49.504Z,100613.91
2022-09-06T15:36:53.349Z,100612.03
2022-09-06T15:38:57.730Z,100609.63
2022-09-06T15:41:23.499Z,100600.06
2022-09-06T15:43:26.557Z,100599.47
2022-09-06T15:45:29.778Z,100597.16
2022-09-06T15:47:35.365Z,100598.03
2022-09-06T15:49:37.912Z,100605.75
2022-09-06T15:51:42.058Z,100597.25
2022-09-06T15:53:44.932Z,100595.16
2022-09-06T15:55:56.473Z,100597.63
2022-09-06T15:57:58.771Z,100593.56
2022-09-06T16:00:01.233Z,100589.03
2022-09-06T16:02:03.674Z,100593.00
2022-09-06T16:04:06.787Z,100592.94
2022-09-06T16:08:26.895Z,100605.50
2022-09-06T16:10:30.147Z,100609.41
2022-09-06T16:12:32.436Z,100618.12
2022-09-06T16:14:35.733Z,100621.91
2022-09-06T16:16:40.409Z,100634.69
2022-09-06T16:18:45.035Z,100637.59
2022-09-06T16:20:47.365Z,100635.78
2022-09-06T16:22:49.948Z,100642.00
2022-09-06T16:24:52.301Z,100643.59
2022-09-06T16:26:54.814Z,100637.22
2022-09-06T16:28:57.661Z,100640.37
2022-09-06T16:31:06.028Z,100645.44
2022-09-06T16:33:08.406Z,100643.94
2022-09-06T16:35:11.001Z,100639.53
2022-09-06T16:37:13.479Z,100645.28
2022-09-06T16:39:15.845Z,100642.38
2022-09-06T16:41:27.063Z,100637.94
2022-09-06T16:43:33.278Z,100628.31
2022-09-06T16:45:35.617Z,100626.87
2022-09-06T16:47:38.485Z,100619.03
2022-09-06T16:49:41.043Z,100621.50
2022-09-06T16:51:44.113Z,100625.44
2022-09-06T16:53:47.933Z,100628.75
2022-09-06T16:55:51.221Z,100622.91
2022-09-06T16:57:53.766Z,100624.81
2022-09-06T16:59:56.357Z,100627.72
2022-09-06T17:01:58.741Z,100625.56
2022-09-06T17:04:02.338Z,100617.16
2022-09-06T17:06:07.252Z,100618.78
2022-09-06T17:08:10.039Z,100618.28
2022-09-06T17:10:12.533Z,100624.66
2022-09-06T17:12:15.051Z,100628.06
2022-09-06T17:14:18.044Z,100629.22
2022-09-06T17:16:40.585Z,100641.91
2022-09-06T17:18:43.424Z,100645.81
2022-09-06T17:21:04.768Z,100652.44
2022-09-06T17:23:07.142Z,100652.94
2022-09-06T17:25:10.282Z,100652.16
2022-09-06T17:27:13.005Z,100651.41
2022-09-06T17:29:15.494Z,100653.69
2022-09-06T17:31:23.585Z,100658.94
2022-09-06T17:33:28.445Z,100657.13
2022-09-06T17:35:30.845Z,100662.88
2022-09-06T17:37:33.565Z,100664.53
2022-09-06T17:39:36.376Z,100667.84
2022-09-06T17:41:40.253Z,100660.25
2022-09-06T17:43:43.267Z,100659.38
2022-09-06T17:45:45.802Z,100669.12
2022-09-06T17:47:48.503Z,100677.37
2022-09-06T17:49:51.290Z,100672.25
2022-09-06T17:51:53.714Z,100674.78
2022-09-06T17:53:56.203Z,100676.19
2022-09-06T17:56:03.928Z,100683.12
2022-09-06T17:58:06.624Z,100680.78
2022-09-06T18:00:11.211Z,100673.97
2022-09-06T18:02:14.032Z,100668.94
2022-09-06T18:04:16.710Z,100671.06
2022-09-06T18:06:22.943Z,100668.16
2022-09-06T18:08:26.507Z,100666.16
2022-09-06T18:10:29.041Z,100675.16
2022-09-06T18:12:31.553Z,100669.81
2022-09-06T18:14:37.228Z,100667.16
2022-09-06T18:16:40.531Z,100662.66
2022-09-06T18:18:43.305Z,100664.81
2022-09-06T18:20:47.025Z,100664.81
2022-09-06T18:22:49.397Z,100671.31
2022-09-06T18:24:57.539Z,100671.19
2022-09-06T18:27:03.171Z,100673.12
2022-09-06T18:29:12.344Z,100669.81
2022-09-06T18:31:17.793Z,100676.19
2022-09-06T18:33:24.159Z,100675.97
2022-09-06T18:35:26.787Z,100677.66
2022-09-06T18:37:29.438Z,100675.69
2022-09-06T18:39:32.419Z,100681.16
2022-09-06T18:41:53.907Z,100684.31
2022-09-06T18:43:58.095Z,100681.88
2022-09-06T18:46:13.991Z,100678.84
2022-09-06T18:48:17.736Z,100674.84
2022-09-06T18:50:22.324Z,100678.50
2022-09-06T18:52:25.377Z,100676.66
2022-09-06T18:54:28.280Z,100683.00
2022-09-06T18:56:31.036Z,100680.00
2022-09-06T18:58:34.068Z,100681.84
2022-09-06T19:00:38.108Z,100681.66
2022-09-06T19:02:40.847Z,100689.38
2022-09-06T19:04:43.994Z,100693.38
2022-09-06T19:06:47.785Z,100686.22
2022-09-06T19:08:52.424Z,100684.03
2022-09-06T19:11:03.726Z,100680.25
2022-09-06T19:13:06.464Z,100684.00
2022-09-06T19:15:09.702Z,100684.37
2022-09-06T19:17:12.807Z,100676.31
2022-09-06T19:19:15.215Z,100680.16
2022-09-06T19:21:20.110Z,100678.16
2022-09-06T19:23:23.049Z,100676.59
2022-09-06T19:25:25.872Z,100670.72
2022-09-06T19:27:28.701Z,100680.00
2022-09-06T19:29:32.375Z,100672.47
2022-09-06T19:31:37.539Z,100680.50
2022-09-06T19:33:41.172Z,100678.69
2022-09-06T19:36:07.683Z,100685.56
2022-09-06T19:38:06.776Z,100676.97
2022-09-06T19:40:10.319Z,100675.97
2022-09-06T19:42:13.357Z,100681.22
2022-09-06T19:47:41.240Z,100680.72
2022-09-06T19:49:44.159Z,100674.50
2022-09-06T19:51:49.225Z,100669.31
2022-09-06T19:53:54.276Z,100674.28
2022-09-06T19:55:58.176Z,100662.81
2022-09-06T19:58:03.792Z,100661.69
2022-09-06T20:00:07.011Z,100657.25
2022-09-06T20:02:14.398Z,100659.12
2022-09-06T20:04:17.573Z,100655.84
2022-09-06T20:06:20.412Z,100658.50
2022-09-06T20:08:23.326Z,100652.88
2022-09-06T20:10:26.265Z,100654.88
2022-09-06T20:12:30.127Z,100652.53
2022-09-06T20:14:32.782Z,100652.22
2022-09-06T20:16:40.617Z,100648.13
2022-09-06T20:18:43.962Z,100654.13
2022-09-06T20:20:47.673Z,100654.09
2022-09-06T20:22:50.807Z,100656.75
2022-09-06T20:24:53.257Z,100654.22
2022-09-06T20:26:56.071Z,100660.44
2022-09-06T20:29:01.226Z,100669.97
2022-09-06T20:31:16.664Z,100665.75
2022-09-06T20:33:19.699Z,100666.22
2022-09-06T20:35:23.203Z,100672.66
2022-09-06T20:37:26.037Z,100659.09
2022-09-06T20:39:29.892Z,100651.63
2022-09-06T20:41:34.081Z,100659.66
2022-09-06T20:43:37.690Z,100662.31
2022-09-06T20:45:40.939Z,100645.47
2022-09-06T20:47:43.832Z,100644.84
2022-09-06T20:49:46.509Z,100646.25
2022-09-06T20:51:49.245Z,100642.56
2022-09-06T20:53:54.498Z,100652.81
2022-09-06T20:56:03.725Z,100657.47
2022-09-06T20:58:06.370Z,100663.31
2022-09-06T21:00:13.790Z,100663.25
2022-09-06T21:02:17.354Z,100664.75
2022-09-06T21:04:19.762Z,100659.56
2022-09-06T21:06:24.524Z,100659.25
2022-09-06T21:08:26.829Z,100656.78
2022-09-06T21:10:29.395Z,100652.75
2022-09-06T21:12:32.049Z,100654.44
2022-09-06T21:14:34.423Z,100657.28
2022-09-06T21:16:37.845Z,100652.91
2022-09-06T21:18:40.488Z,100645.34
2022-09-06T21:20:42.772Z,100649.09
2022-09-06T21:22:45.191Z,100648.13
2022-09-06T21:24:48.912Z,100655.09
2022-09-06T21:26:51.435Z,100642.31
2022-09-06T21:28:54.370Z,100641.47
2022-09-06T21:31:09.706Z,100643.47
2022-09-06T21:33:12.007Z,100650.94
2022-09-06T21:35:14.377Z,100643.09
2022-09-06T21:37:17.812Z,100644.81
2022-09-06T21:39:20.104Z,100640.00
2022-09-06T21:41:23.460Z,100630.84
2022-09-06T21:43:26.632Z,100643.19
2022-09-06T21:45:29.104Z,100649.19
2022-09-06T21:47:31.519Z,100635.38
2022-09-06T21:49:34.104Z,100642.00
2022-09-06T21:51:37.385Z,100634.09
2022-09-06T21:53:40.628Z,100637.94
2022-09-06T21:55:43.825Z,100634.63
2022-09-06T21:57:46.239Z,100636.91
2022-09-06T21:59:48.504Z,100637.37
2022-09-06T22:01:52.525Z,100634.63
